sensor_id;sensor_type;location;lat;lon;timestamp;P1;durP1;ratioP1;P2;durP2;ratioP2
19776;SDS011;10047;42.490;26.012;2024-01-15T00:02:14;130.93;;;70.43;;
19776;SDS011;10047;42.490;26.012;2024-01-15T00:04:40;153.27;;;80.97;;
19776;SDS011;10047;42.490;26.012;2024-01-15T00:07:09;120.85;;;66.22;;
19776;SDS011;10047;42.490;26.012;2024-01-15T00:09:34;119.28;;;62.15;;
19776;SDS011;10047;42.490;26.012;2024-01-15T00:12:00;114.18;;;62.17;;
19776;SDS011;10047;42.490;26.012;2024-01-15T00:14:27;116.07;;;61.95;;
19776;SDS011;10047;42.490;26.012;2024-01-15T00:16:52;115.40;;;61.33;;
19776;SDS011;10047;42.490;26.012;2024-01-15T00:19:20;119.95;;;59.67;;
19776;SDS011;10047;42.490;26.012;2024-01-15T00:21:46;122.53;;;64.97;;
19776;SDS011;10047;42.490;26.012;2024-01-15T00:24:12;114.53;;;60.90;;
19776;SDS011;10047;42.490;26.012;2024-01-15T00:26:38;112.78;;;56.80;;
19776;SDS011;10047;42.490;26.012;2024-01-15T00:29:03;109.43;;;59.13;;
19776;SDS011;10047;42.490;26.012;2024-01-15T00:31:29;121.80;;;65.97;;
19776;SDS011;10047;42.490;26.012;2024-01-15T00:33:55;80.95;;;45.88;;
19776;SDS011;10047;42.490;26.012;2024-01-15T00:36:21;78.03;;;43.00;;
19776;SDS011;10047;42.490;26.012;2024-01-15T00:38:47;70.88;;;39.72;;
19776;SDS011;10047;42.490;26.012;2024-01-15T00:41:12;67.47;;;37.55;;
19776;SDS011;10047;42.490;26.012;2024-01-15T00:43:38;70.03;;;38.55;;
19776;SDS011;10047;42.490;26.012;2024-01-15T00:46:04;69.72;;;39.42;;
19776;SDS011;10047;42.490;26.012;2024-01-15T00:48:30;62.58;;;36.10;;
19776;SDS011;10047;42.490;26.012;2024-01-15T00:50:56;76.35;;;41.22;;
19776;SDS011;10047;42.490;26.012;2024-01-15T00:53:21;67.30;;;38.30;;
19776;SDS011;10047;42.490;26.012;2024-01-15T00:55:47;73.03;;;41.35;;
19776;SDS011;10047;42.490;26.012;2024-01-15T00:58:13;78.45;;;43.55;;
19776;SDS011;10047;42.490;26.012;2024-01-15T01:00:39;73.28;;;40.22;;
19776;SDS011;10047;42.490;26.012;2024-01-15T01:03:04;69.43;;;40.22;;
19776;SDS011;10047;42.490;26.012;2024-01-15T01:05:30;73.22;;;39.65;;
19776;SDS011;10047;42.490;26.012;2024-01-15T01:07:55;77.82;;;42.72;;
19776;SDS011;10047;42.490;26.012;2024-01-15T01:10:21;77.40;;;44.00;;
19776;SDS011;10047;42.490;26.012;2024-01-15T01:12:48;75.70;;;42.40;;
19776;SDS011;10047;42.490;26.012;2024-01-15T01:15:14;78.57;;;43.50;;
19776;SDS011;10047;42.490;26.012;2024-01-15T01:17:39;79.05;;;43.70;;
19776;SDS011;10047;42.490;26.012;2024-01-15T01:20:05;79.55;;;43.53;;
19776;SDS011;10047;42.490;26.012;2024-01-15T01:22:33;75.13;;;42.33;;
19776;SDS011;10047;42.490;26.012;2024-01-15T01:24:59;79.95;;;43.63;;
19776;SDS011;10047;42.490;26.012;2024-01-15T01:27:24;82.07;;;45.03;;
19776;SDS011;10047;42.490;26.012;2024-01-15T01:29:50;79.25;;;43.80;;
19776;SDS011;10047;42.490;26.012;2024-01-15T01:32:15;77.57;;;43.85;;
19776;SDS011;10047;42.490;26.012;2024-01-15T01:34:41;69.30;;;39.03;;
19776;SDS011;10047;42.490;26.012;2024-01-15T01:37:12;65.10;;;37.78;;
19776;SDS011;10047;42.490;26.012;2024-01-15T01:39:39;65.95;;;37.88;;
19776;SDS011;10047;42.490;26.012;2024-01-15T01:42:05;63.50;;;37.58;;
19776;SDS011;10047;42.490;26.012;2024-01-15T01:44:31;63.47;;;38.10;;
19776;SDS011;10047;42.490;26.012;2024-01-15T01:46:57;65.00;;;38.45;;
19776;SDS011;10047;42.490;26.012;2024-01-15T01:49:24;65.22;;;35.95;;
19776;SDS011;10047;42.490;26.012;2024-01-15T01:51:51;55.05;;;32.25;;
19776;SDS011;10047;42.490;26.012;2024-01-15T01:54:17;56.55;;;30.25;;
19776;SDS011;10047;42.490;26.012;2024-01-15T01:56:44;52.63;;;29.85;;
19776;SDS011;10047;42.490;26.012;2024-01-15T01:59:12;50.13;;;28.38;;
19776;SDS011;10047;42.490;26.012;2024-01-15T02:01:38;49.92;;;28.40;;
19776;SDS011;10047;42.490;26.012;2024-01-15T02:04:04;51.88;;;28.25;;
19776;SDS011;10047;42.490;26.012;2024-01-15T02:06:30;50.38;;;29.40;;
19776;SDS011;10047;42.490;26.012;2024-01-15T02:08:56;56.35;;;31.50;;
19776;SDS011;10047;42.490;26.012;2024-01-15T02:11:21;60.65;;;35.85;;
19776;SDS011;10047;42.490;26.012;2024-01-15T02:13:47;69.38;;;40.35;;
19776;SDS011;10047;42.490;26.012;2024-01-15T02:16:13;66.10;;;38.25;;
19776;SDS011;10047;42.490;26.012;2024-01-15T02:18:45;64.43;;;37.10;;
19776;SDS011;10047;42.490;26.012;2024-01-15T02:21:11;74.38;;;40.90;;
19776;SDS011;10047;42.490;26.012;2024-01-15T02:23:38;76.38;;;43.85;;
19776;SDS011;10047;42.490;26.012;2024-01-15T02:26:04;76.68;;;43.83;;
19776;SDS011;10047;42.490;26.012;2024-01-15T02:28:30;74.75;;;41.72;;
19776;SDS011;10047;42.490;26.012;2024-01-15T02:30:57;73.22;;;42.25;;
19776;SDS011;10047;42.490;26.012;2024-01-15T02:33:23;76.10;;;43.70;;
19776;SDS011;10047;42.490;26.012;2024-01-15T02:35:48;73.95;;;42.20;;
19776;SDS011;10047;42.490;26.012;2024-01-15T02:38:16;86.68;;;43.95;;
19776;SDS011;10047;42.490;26.012;2024-01-15T02:40:43;83.70;;;42.80;;
19776;SDS011;10047;42.490;26.012;2024-01-15T02:43:09;81.32;;;42.05;;
19776;SDS011;10047;42.490;26.012;2024-01-15T02:45:35;73.63;;;39.53;;
19776;SDS011;10047;42.490;26.012;2024-01-15T02:48:00;76.85;;;39.38;;
19776;SDS011;10047;42.490;26.012;2024-01-15T02:50:26;67.55;;;37.80;;
19776;SDS011;10047;42.490;26.012;2024-01-15T02:52:51;72.20;;;38.88;;
19776;SDS011;10047;42.490;26.012;2024-01-15T02:55:17;77.25;;;40.47;;
19776;SDS011;10047;42.490;26.012;2024-01-15T02:57:43;72.85;;;40.65;;
19776;SDS011;10047;42.490;26.012;2024-01-15T03:00:08;70.40;;;38.22;;
19776;SDS011;10047;42.490;26.012;2024-01-15T03:02:37;65.97;;;37.05;;
19776;SDS011;10047;42.490;26.012;2024-01-15T03:05:08;71.18;;;37.85;;
19776;SDS011;10047;42.490;26.012;2024-01-15T03:07:34;72.38;;;39.78;;
19776;SDS011;10047;42.490;26.012;2024-01-15T03:09:59;76.28;;;39.67;;
19776;SDS011;10047;42.490;26.012;2024-01-15T03:12:25;74.82;;;39.10;;
19776;SDS011;10047;42.490;26.012;2024-01-15T03:14:50;74.40;;;41.45;;
19776;SDS011;10047;42.490;26.012;2024-01-15T03:17:16;75.65;;;41.05;;
19776;SDS011;10047;42.490;26.012;2024-01-15T03:19:41;71.93;;;39.70;;
19776;SDS011;10047;42.490;26.012;2024-01-15T03:22:07;70.40;;;38.47;;
19776;SDS011;10047;42.490;26.012;2024-01-15T03:24:34;65.03;;;37.08;;
19776;SDS011;10047;42.490;26.012;2024-01-15T03:26:59;67.72;;;37.03;;
19776;SDS011;10047;42.490;26.012;2024-01-15T03:29:25;63.45;;;34.85;;
19776;SDS011;10047;42.490;26.012;2024-01-15T03:31:51;62.63;;;34.67;;
19776;SDS011;10047;42.490;26.012;2024-01-15T03:34:17;65.95;;;35.50;;
19776;SDS011;10047;42.490;26.012;2024-01-15T03:36:42;64.43;;;36.42;;
19776;SDS011;10047;42.490;26.012;2024-01-15T03:39:08;65.13;;;36.67;;
19776;SDS011;10047;42.490;26.012;2024-01-15T03:41:33;68.85;;;36.55;;
19776;SDS011;10047;42.490;26.012;2024-01-15T03:43:58;69.57;;;38.70;;
19776;SDS011;10047;42.490;26.012;2024-01-15T03:46:24;69.93;;;38.88;;
19776;SDS011;10047;42.490;26.012;2024-01-15T03:48:49;70.53;;;38.17;;
19776;SDS011;10047;42.490;26.012;2024-01-15T03:51:16;65.68;;;37.17;;
19776;SDS011;10047;42.490;26.012;2024-01-15T03:53:42;65.70;;;37.20;;
19776;SDS011;10047;42.490;26.012;2024-01-15T03:56:08;66.13;;;36.88;;
19776;SDS011;10047;42.490;26.012;2024-01-15T03:58:33;67.13;;;36.67;;
19776;SDS011;10047;42.490;26.012;2024-01-15T04:00:59;65.72;;;36.20;;
19776;SDS011;10047;42.490;26.012;2024-01-15T04:03:24;62.97;;;35.40;;
19776;SDS011;10047;42.490;26.012;2024-01-15T04:05:49;71.18;;;39.03;;
19776;SDS011;10047;42.490;26.012;2024-01-15T04:08:15;100.88;;;60.38;;
19776;SDS011;10047;42.490;26.012;2024-01-15T04:10:40;178.30;;;114.45;;
19776;SDS011;10047;42.490;26.012;2024-01-15T04:13:06;163.02;;;107.07;;
19776;SDS011;10047;42.490;26.012;2024-01-15T04:15:32;93.53;;;50.92;;
19776;SDS011;10047;42.490;26.012;2024-01-15T04:17:57;75.57;;;41.78;;
19776;SDS011;10047;42.490;26.012;2024-01-15T04:20:22;72.30;;;39.65;;
19776;SDS011;10047;42.490;26.012;2024-01-15T04:22:48;69.78;;;39.15;;
19776;SDS011;10047;42.490;26.012;2024-01-15T04:25:13;72.40;;;41.00;;
19776;SDS011;10047;42.490;26.012;2024-01-15T04:27:39;68.82;;;39.38;;
19776;SDS011;10047;42.490;26.012;2024-01-15T04:30:04;72.25;;;39.17;;
19776;SDS011;10047;42.490;26.012;2024-01-15T04:32:30;67.30;;;37.00;;
19776;SDS011;10047;42.490;26.012;2024-01-15T04:34:56;71.15;;;39.40;;
19776;SDS011;10047;42.490;26.012;2024-01-15T04:37:21;70.22;;;39.72;;
19776;SDS011;10047;42.490;26.012;2024-01-15T04:39:46;74.40;;;40.65;;
19776;SDS011;10047;42.490;26.012;2024-01-15T04:42:12;73.78;;;39.08;;
19776;SDS011;10047;42.490;26.012;2024-01-15T04:44:37;72.28;;;39.88;;
19776;SDS011;10047;42.490;26.012;2024-01-15T04:47:03;69.82;;;38.80;;
19776;SDS011;10047;42.490;26.012;2024-01-15T04:49:28;73.70;;;39.38;;
19776;SDS011;10047;42.490;26.012;2024-01-15T04:51:54;72.32;;;40.40;;
19776;SDS011;10047;42.490;26.012;2024-01-15T04:54:20;95.40;;;50.13;;
19776;SDS011;10047;42.490;26.012;2024-01-15T04:56:46;90.97;;;49.20;;
19776;SDS011;10047;42.490;26.012;2024-01-15T04:59:11;115.07;;;61.13;;
19776;SDS011;10047;42.490;26.012;2024-01-15T05:01:37;107.60;;;59.53;;
19776;SDS011;10047;42.490;26.012;2024-01-15T05:04:03;102.25;;;58.38;;
19776;SDS011;10047;42.490;26.012;2024-01-15T05:06:28;111.13;;;61.78;;
19776;SDS011;10047;42.490;26.012;2024-01-15T05:08:54;112.22;;;61.30;;
19776;SDS011;10047;42.490;26.012;2024-01-15T05:11:19;108.68;;;64.15;;
19776;SDS011;10047;42.490;26.012;2024-01-15T05:13:45;104.75;;;61.58;;
19776;SDS011;10047;42.490;26.012;2024-01-15T05:16:10;146.93;;;90.15;;
19776;SDS011;10047;42.490;26.012;2024-01-15T05:18:36;170.27;;;99.22;;
19776;SDS011;10047;42.490;26.012;2024-01-15T05:21:02;182.27;;;107.18;;
19776;SDS011;10047;42.490;26.012;2024-01-15T05:23:28;219.35;;;121.60;;
19776;SDS011;10047;42.490;26.012;2024-01-15T05:25:54;151.65;;;88.75;;
19776;SDS011;10047;42.490;26.012;2024-01-15T05:28:19;136.85;;;83.53;;
19776;SDS011;10047;42.490;26.012;2024-01-15T05:30:44;144.48;;;82.93;;
19776;SDS011;10047;42.490;26.012;2024-01-15T05:33:10;143.93;;;84.25;;
19776;SDS011;10047;42.490;26.012;2024-01-15T05:35:35;126.53;;;78.05;;
19776;SDS011;10047;42.490;26.012;2024-01-15T05:38:01;122.75;;;71.82;;
19776;SDS011;10047;42.490;26.012;2024-01-15T05:40:27;195.27;;;90.60;;
19776;SDS011;10047;42.490;26.012;2024-01-15T05:42:53;183.57;;;90.93;;
19776;SDS011;10047;42.490;26.012;2024-01-15T05:45:18;153.75;;;79.20;;
19776;SDS011;10047;42.490;26.012;2024-01-15T05:47:44;136.88;;;75.28;;
19776;SDS011;10047;42.490;26.012;2024-01-15T05:50:09;153.50;;;80.80;;
19776;SDS011;10047;42.490;26.012;2024-01-15T05:52:35;163.60;;;84.07;;
19776;SDS011;10047;42.490;26.012;2024-01-15T05:55:01;172.50;;;91.05;;
19776;SDS011;10047;42.490;26.012;2024-01-15T05:57:26;165.32;;;85.88;;
19776;SDS011;10047;42.490;26.012;2024-01-15T05:59:52;159.30;;;84.85;;
19776;SDS011;10047;42.490;26.012;2024-01-15T06:02:18;159.95;;;87.57;;
19776;SDS011;10047;42.490;26.012;2024-01-15T06:04:43;155.80;;;87.57;;
19776;SDS011;10047;42.490;26.012;2024-01-15T06:07:09;154.75;;;86.55;;
19776;SDS011;10047;42.490;26.012;2024-01-15T06:09:34;151.50;;;89.55;;
19776;SDS011;10047;42.490;26.012;2024-01-15T06:12:00;152.18;;;91.05;;
19776;SDS011;10047;42.490;26.012;2024-01-15T06:14:25;158.32;;;90.28;;
19776;SDS011;10047;42.490;26.012;2024-01-15T06:16:51;133.90;;;76.65;;
19776;SDS011;10047;42.490;26.012;2024-01-15T06:19:17;122.35;;;69.40;;
19776;SDS011;10047;42.490;26.012;2024-01-15T06:21:42;127.78;;;72.45;;
19776;SDS011;10047;42.490;26.012;2024-01-15T06:24:08;125.32;;;68.85;;
19776;SDS011;10047;42.490;26.012;2024-01-15T06:26:35;108.85;;;59.08;;
19776;SDS011;10047;42.490;26.012;2024-01-15T06:29:00;116.53;;;61.08;;
19776;SDS011;10047;42.490;26.012;2024-01-15T06:31:25;111.03;;;59.92;;
19776;SDS011;10047;42.490;26.012;2024-01-15T06:33:51;107.35;;;56.80;;
19776;SDS011;10047;42.490;26.012;2024-01-15T06:36:16;105.30;;;57.42;;
19776;SDS011;10047;42.490;26.012;2024-01-15T06:38:43;104.78;;;55.28;;
19776;SDS011;10047;42.490;26.012;2024-01-15T06:41:09;109.18;;;60.17;;
19776;SDS011;10047;42.490;26.012;2024-01-15T06:43:35;130.70;;;71.60;;
19776;SDS011;10047;42.490;26.012;2024-01-15T06:46:00;139.13;;;79.03;;
19776;SDS011;10047;42.490;26.012;2024-01-15T06:48:26;134.27;;;80.32;;
19776;SDS011;10047;42.490;26.012;2024-01-15T06:50:51;131.10;;;76.55;;
19776;SDS011;10047;42.490;26.012;2024-01-15T06:53:16;126.88;;;73.28;;
19776;SDS011;10047;42.490;26.012;2024-01-15T06:55:42;119.30;;;67.18;;
19776;SDS011;10047;42.490;26.012;2024-01-15T06:58:07;112.22;;;66.85;;
19776;SDS011;10047;42.490;26.012;2024-01-15T07:00:33;103.50;;;61.50;;
19776;SDS011;10047;42.490;26.012;2024-01-15T07:02:58;105.53;;;62.55;;
19776;SDS011;10047;42.490;26.012;2024-01-15T07:05:24;100.32;;;59.95;;
19776;SDS011;10047;42.490;26.012;2024-01-15T07:07:49;109.65;;;65.03;;
19776;SDS011;10047;42.490;26.012;2024-01-15T07:10:15;103.80;;;61.08;;
19776;SDS011;10047;42.490;26.012;2024-01-15T07:12:44;106.28;;;64.25;;
19776;SDS011;10047;42.490;26.012;2024-01-15T07:15:09;117.18;;;71.45;;
19776;SDS011;10047;42.490;26.012;2024-01-15T07:17:35;128.95;;;81.38;;
19776;SDS011;10047;42.490;26.012;2024-01-15T07:20:05;133.70;;;85.43;;
19776;SDS011;10047;42.490;26.012;2024-01-15T07:22:35;145.32;;;95.60;;
19776;SDS011;10047;42.490;26.012;2024-01-15T07:25:00;139.82;;;88.00;;
19776;SDS011;10047;42.490;26.012;2024-01-15T07:27:26;134.73;;;88.25;;
19776;SDS011;10047;42.490;26.012;2024-01-15T07:29:51;135.80;;;87.30;;
19776;SDS011;10047;42.490;26.012;2024-01-15T07:32:17;144.27;;;94.57;;
19776;SDS011;10047;42.490;26.012;2024-01-15T07:34:43;170.02;;;106.20;;
19776;SDS011;10047;42.490;26.012;2024-01-15T07:37:08;143.05;;;89.78;;
19776;SDS011;10047;42.490;26.012;2024-01-15T07:39:34;130.40;;;84.05;;
19776;SDS011;10047;42.490;26.012;2024-01-15T07:41:59;137.82;;;88.03;;
19776;SDS011;10047;42.490;26.012;2024-01-15T07:44:25;139.23;;;88.20;;
19776;SDS011;10047;42.490;26.012;2024-01-15T07:46:51;134.52;;;87.82;;
19776;SDS011;10047;42.490;26.012;2024-01-15T07:49:16;134.73;;;84.93;;
19776;SDS011;10047;42.490;26.012;2024-01-15T07:51:42;135.27;;;84.85;;
19776;SDS011;10047;42.490;26.012;2024-01-15T07:54:09;138.45;;;82.55;;
19776;SDS011;10047;42.490;26.012;2024-01-15T07:56:52;122.75;;;74.97;;
19776;SDS011;10047;42.490;26.012;2024-01-15T07:59:21;125.25;;;74.25;;
19776;SDS011;10047;42.490;26.012;2024-01-15T08:01:47;114.10;;;66.47;;
19776;SDS011;10047;42.490;26.012;2024-01-15T08:04:12;116.00;;;71.22;;
19776;SDS011;10047;42.490;26.012;2024-01-15T08:06:38;115.50;;;66.53;;
19776;SDS011;10047;42.490;26.012;2024-01-15T08:09:04;127.97;;;72.82;;
19776;SDS011;10047;42.490;26.012;2024-01-15T08:11:29;122.45;;;73.40;;
19776;SDS011;10047;42.490;26.012;2024-01-15T08:13:55;119.88;;;70.15;;
19776;SDS011;10047;42.490;26.012;2024-01-15T08:16:21;111.57;;;65.90;;
19776;SDS011;10047;42.490;26.012;2024-01-15T08:18:46;101.43;;;64.65;;
19776;SDS011;10047;42.490;26.012;2024-01-15T08:21:12;90.15;;;56.15;;
19776;SDS011;10047;42.490;26.012;2024-01-15T08:23:41;90.22;;;56.97;;
19776;SDS011;10047;42.490;26.012;2024-01-15T08:26:07;84.65;;;51.30;;
19776;SDS011;10047;42.490;26.012;2024-01-15T08:28:34;81.88;;;49.38;;
19776;SDS011;10047;42.490;26.012;2024-01-15T08:30:59;82.35;;;52.10;;
19776;SDS011;10047;42.490;26.012;2024-01-15T08:33:26;93.82;;;52.72;;
19776;SDS011;10047;42.490;26.012;2024-01-15T08:35:51;89.22;;;56.20;;
19776;SDS011;10047;42.490;26.012;2024-01-15T08:38:18;81.65;;;50.65;;
19776;SDS011;10047;42.490;26.012;2024-01-15T08:40:44;62.45;;;37.53;;
19776;SDS011;10047;42.490;26.012;2024-01-15T08:43:09;63.17;;;37.25;;
19776;SDS011;10047;42.490;26.012;2024-01-15T08:45:35;69.45;;;39.72;;
19776;SDS011;10047;42.490;26.012;2024-01-15T08:48:00;56.38;;;34.60;;
19776;SDS011;10047;42.490;26.012;2024-01-15T08:50:27;58.95;;;36.15;;
19776;SDS011;10047;42.490;26.012;2024-01-15T08:52:52;56.67;;;35.88;;
19776;SDS011;10047;42.490;26.012;2024-01-15T08:55:18;63.45;;;37.35;;
19776;SDS011;10047;42.490;26.012;2024-01-15T08:57:43;56.05;;;33.17;;
19776;SDS011;10047;42.490;26.012;2024-01-15T09:00:09;68.55;;;39.03;;
19776;SDS011;10047;42.490;26.012;2024-01-15T09:02:35;70.05;;;42.30;;
19776;SDS011;10047;42.490;26.012;2024-01-15T09:05:01;71.32;;;44.10;;
19776;SDS011;10047;42.490;26.012;2024-01-15T09:07:26;82.13;;;51.72;;
19776;SDS011;10047;42.490;26.012;2024-01-15T09:09:52;84.18;;;52.25;;
19776;SDS011;10047;42.490;26.012;2024-01-15T09:12:20;91.10;;;54.72;;
19776;SDS011;10047;42.490;26.012;2024-01-15T09:14:47;85.93;;;53.05;;
19776;SDS011;10047;42.490;26.012;2024-01-15T09:17:12;94.95;;;55.88;;
19776;SDS011;10047;42.490;26.012;2024-01-15T09:19:38;74.70;;;47.50;;
19776;SDS011;10047;42.490;26.012;2024-01-15T09:22:06;81.93;;;51.15;;
19776;SDS011;10047;42.490;26.012;2024-01-15T09:24:32;84.82;;;50.63;;
19776;SDS011;10047;42.490;26.012;2024-01-15T09:26:57;83.72;;;52.65;;
19776;SDS011;10047;42.490;26.012;2024-01-15T09:29:23;90.15;;;54.08;;
19776;SDS011;10047;42.490;26.012;2024-01-15T09:31:49;83.90;;;49.25;;
19776;SDS011;10047;42.490;26.012;2024-01-15T09:34:17;85.82;;;52.70;;
19776;SDS011;10047;42.490;26.012;2024-01-15T09:36:43;95.82;;;59.92;;
19776;SDS011;10047;42.490;26.012;2024-01-15T09:39:09;101.80;;;61.13;;
19776;SDS011;10047;42.490;26.012;2024-01-15T09:41:36;99.40;;;58.85;;
19776;SDS011;10047;42.490;26.012;2024-01-15T09:44:03;97.10;;;58.55;;
19776;SDS011;10047;42.490;26.012;2024-01-15T09:46:30;95.00;;;58.47;;
19776;SDS011;10047;42.490;26.012;2024-01-15T09:48:57;101.72;;;57.15;;
19776;SDS011;10047;42.490;26.012;2024-01-15T09:51:24;88.95;;;50.80;;
19776;SDS011;10047;42.490;26.012;2024-01-15T09:53:49;83.38;;;54.70;;
19776;SDS011;10047;42.490;26.012;2024-01-15T09:56:15;85.65;;;52.38;;
19776;SDS011;10047;42.490;26.012;2024-01-15T09:58:41;79.78;;;50.92;;
19776;SDS011;10047;42.490;26.012;2024-01-15T10:01:07;82.40;;;52.70;;
19776;SDS011;10047;42.490;26.012;2024-01-15T10:03:33;83.10;;;51.92;;
19776;SDS011;10047;42.490;26.012;2024-01-15T10:05:59;82.18;;;51.28;;
19776;SDS011;10047;42.490;26.012;2024-01-15T10:08:25;75.85;;;47.97;;
19776;SDS011;10047;42.490;26.012;2024-01-15T10:10:51;80.30;;;51.08;;
19776;SDS011;10047;42.490;26.012;2024-01-15T10:13:17;82.85;;;54.47;;
19776;SDS011;10047;42.490;26.012;2024-01-15T10:15:45;88.82;;;56.65;;
19776;SDS011;10047;42.490;26.012;2024-01-15T10:18:12;81.78;;;52.05;;
19776;SDS011;10047;42.490;26.012;2024-01-15T10:20:37;77.97;;;50.13;;
19776;SDS011;10047;42.490;26.012;2024-01-15T10:23:03;86.05;;;57.03;;
19776;SDS011;10047;42.490;26.012;2024-01-15T10:25:29;75.82;;;49.65;;
19776;SDS011;10047;42.490;26.012;2024-01-15T10:27:59;69.35;;;44.72;;
19776;SDS011;10047;42.490;26.012;2024-01-15T10:30:26;63.53;;;42.55;;
19776;SDS011;10047;42.490;26.012;2024-01-15T10:32:58;59.95;;;39.80;;
19776;SDS011;10047;42.490;26.012;2024-01-15T10:35:31;67.35;;;45.63;;
19776;SDS011;10047;42.490;26.012;2024-01-15T10:38:01;76.45;;;52.00;;
19776;SDS011;10047;42.490;26.012;2024-01-15T10:40:28;86.32;;;59.15;;
19776;SDS011;10047;42.490;26.012;2024-01-15T10:42:54;83.85;;;57.78;;
19776;SDS011;10047;42.490;26.012;2024-01-15T10:45:20;86.20;;;59.15;;
19776;SDS011;10047;42.490;26.012;2024-01-15T10:47:45;95.50;;;62.70;;
19776;SDS011;10047;42.490;26.012;2024-01-15T10:50:11;59.28;;;40.70;;
19776;SDS011;10047;42.490;26.012;2024-01-15T10:52:37;76.80;;;49.10;;
19776;SDS011;10047;42.490;26.012;2024-01-15T10:55:08;94.50;;;63.97;;
19776;SDS011;10047;42.490;26.012;2024-01-15T10:57:34;97.88;;;63.50;;
19776;SDS011;10047;42.490;26.012;2024-01-15T11:00:06;63.70;;;44.17;;
19776;SDS011;10047;42.490;26.012;2024-01-15T11:02:35;54.30;;;36.33;;
19776;SDS011;10047;42.490;26.012;2024-01-15T11:05:02;48.42;;;31.13;;
19776;SDS011;10047;42.490;26.012;2024-01-15T11:07:28;49.38;;;33.17;;
19776;SDS011;10047;42.490;26.012;2024-01-15T11:09:55;42.58;;;30.13;;
19776;SDS011;10047;42.490;26.012;2024-01-15T11:12:20;47.50;;;32.05;;
19776;SDS011;10047;42.490;26.012;2024-01-15T11:14:46;67.95;;;43.22;;
19776;SDS011;10047;42.490;26.012;2024-01-15T11:17:14;49.88;;;35.70;;
19776;SDS011;10047;42.490;26.012;2024-01-15T11:22:11;71.20;;;46.28;;
19776;SDS011;10047;42.490;26.012;2024-01-15T11:25:14;48.53;;;31.95;;
19776;SDS011;10047;42.490;26.012;2024-01-15T11:27:41;43.70;;;29.63;;
19776;SDS011;10047;42.490;26.012;2024-01-15T11:30:08;37.25;;;27.33;;
19776;SDS011;10047;42.490;26.012;2024-01-15T11:32:35;40.85;;;26.27;;
19776;SDS011;10047;42.490;26.012;2024-01-15T11:35:01;33.00;;;23.85;;
19776;SDS011;10047;42.490;26.012;2024-01-15T11:37:28;33.15;;;21.75;;
19776;SDS011;10047;42.490;26.012;2024-01-15T11:40:14;30.17;;;21.20;;
19776;SDS011;10047;42.490;26.012;2024-01-15T11:42:44;35.58;;;27.05;;
19776;SDS011;10047;42.490;26.012;2024-01-15T11:45:10;35.53;;;25.08;;
19776;SDS011;10047;42.490;26.012;2024-01-15T11:50:56;37.20;;;26.15;;
19776;SDS011;10047;42.490;26.012;2024-01-15T11:53:27;33.80;;;23.92;;
19776;SDS011;10047;42.490;26.012;2024-01-15T11:56:11;39.83;;;26.00;;
19776;SDS011;10047;42.490;26.012;2024-01-15T11:58:41;38.97;;;28.75;;
19776;SDS011;10047;42.490;26.012;2024-01-15T12:01:08;31.50;;;22.48;;
19776;SDS011;10047;42.490;26.012;2024-01-15T12:03:36;32.63;;;22.58;;
19776;SDS011;10047;42.490;26.012;2024-01-15T12:06:01;40.28;;;28.95;;
19776;SDS011;10047;42.490;26.012;2024-01-15T12:08:27;27.27;;;19.33;;
19776;SDS011;10047;42.490;26.012;2024-01-15T12:10:53;36.55;;;28.17;;
19776;SDS011;10047;42.490;26.012;2024-01-15T12:13:18;31.83;;;23.05;;
19776;SDS011;10047;42.490;26.012;2024-01-15T12:15:46;34.08;;;23.77;;
19776;SDS011;10047;42.490;26.012;2024-01-15T12:18:13;33.78;;;25.35;;
19776;SDS011;10047;42.490;26.012;2024-01-15T12:20:41;38.22;;;27.83;;
19776;SDS011;10047;42.490;26.012;2024-01-15T12:23:07;41.05;;;30.20;;
19776;SDS011;10047;42.490;26.012;2024-01-15T12:25:33;40.45;;;27.48;;
19776;SDS011;10047;42.490;26.012;2024-01-15T12:28:00;31.13;;;21.42;;
19776;SDS011;10047;42.490;26.012;2024-01-15T12:30:30;36.95;;;26.08;;
19776;SDS011;10047;42.490;26.012;2024-01-15T12:33:00;33.45;;;23.70;;
19776;SDS011;10047;42.490;26.012;2024-01-15T12:35:28;45.67;;;32.47;;
19776;SDS011;10047;42.490;26.012;2024-01-15T12:37:55;36.08;;;25.58;;
19776;SDS011;10047;42.490;26.012;2024-01-15T12:40:21;35.95;;;25.38;;
19776;SDS011;10047;42.490;26.012;2024-01-15T12:42:47;35.85;;;25.20;;
19776;SDS011;10047;42.490;26.012;2024-01-15T12:45:13;41.15;;;28.95;;
19776;SDS011;10047;42.490;26.012;2024-01-15T12:47:39;40.55;;;28.77;;
19776;SDS011;10047;42.490;26.012;2024-01-15T12:50:06;38.70;;;26.95;;
19776;SDS011;10047;42.490;26.012;2024-01-15T12:52:36;36.85;;;26.40;;
19776;SDS011;10047;42.490;26.012;2024-01-15T12:55:04;49.13;;;33.17;;
19776;SDS011;10047;42.490;26.012;2024-01-15T12:57:36;52.85;;;36.58;;
19776;SDS011;10047;42.490;26.012;2024-01-15T13:00:03;46.35;;;30.35;;
19776;SDS011;10047;42.490;26.012;2024-01-15T13:02:38;47.40;;;32.63;;
19776;SDS011;10047;42.490;26.012;2024-01-15T13:05:10;56.70;;;38.28;;
19776;SDS011;10047;42.490;26.012;2024-01-15T13:07:36;60.72;;;36.65;;
19776;SDS011;10047;42.490;26.012;2024-01-15T13:10:02;53.05;;;36.03;;
19776;SDS011;10047;42.490;26.012;2024-01-15T13:12:28;49.28;;;32.10;;
19776;SDS011;10047;42.490;26.012;2024-01-15T13:14:53;48.30;;;30.20;;
19776;SDS011;10047;42.490;26.012;2024-01-15T13:17:19;56.05;;;43.78;;
19776;SDS011;10047;42.490;26.012;2024-01-15T13:19:46;35.92;;;25.98;;
19776;SDS011;10047;42.490;26.012;2024-01-15T13:22:11;39.78;;;28.02;;
19776;SDS011;10047;42.490;26.012;2024-01-15T13:24:39;48.05;;;32.13;;
19776;SDS011;10047;42.490;26.012;2024-01-15T13:27:04;45.20;;;31.33;;
19776;SDS011;10047;42.490;26.012;2024-01-15T13:29:31;53.78;;;33.92;;
19776;SDS011;10047;42.490;26.012;2024-01-15T13:31:57;64.78;;;43.03;;
19776;SDS011;10047;42.490;26.012;2024-01-15T13:34:23;59.78;;;41.65;;
19776;SDS011;10047;42.490;26.012;2024-01-15T13:36:49;41.22;;;28.02;;
19776;SDS011;10047;42.490;26.012;2024-01-15T13:39:18;39.75;;;28.63;;
19776;SDS011;10047;42.490;26.012;2024-01-15T13:41:48;47.17;;;30.27;;
19776;SDS011;10047;42.490;26.012;2024-01-15T13:44:14;41.85;;;29.95;;
19776;SDS011;10047;42.490;26.012;2024-01-15T13:46:39;44.05;;;29.40;;
19776;SDS011;10047;42.490;26.012;2024-01-15T13:49:05;44.67;;;31.15;;
19776;SDS011;10047;42.490;26.012;2024-01-15T13:51:36;49.33;;;32.40;;
19776;SDS011;10047;42.490;26.012;2024-01-15T13:54:02;51.80;;;32.72;;
19776;SDS011;10047;42.490;26.012;2024-01-15T13:56:32;54.65;;;38.95;;
19776;SDS011;10047;42.490;26.012;2024-01-15T13:58:58;62.88;;;41.05;;
19776;SDS011;10047;42.490;26.012;2024-01-15T14:01:24;84.35;;;52.35;;
19776;SDS011;10047;42.490;26.012;2024-01-15T14:03:50;96.70;;;57.03;;
19776;SDS011;10047;42.490;26.012;2024-01-15T14:06:16;86.60;;;58.65;;
19776;SDS011;10047;42.490;26.012;2024-01-15T14:08:41;85.63;;;57.20;;